Time;durP1;ratioP1;P1;durP2;ratioP2;P2;SDS_P1;SDS_P2;PMS_P1;PMS_P2;Temp;Humidity;BMP_temperature;BMP_pressure;BME280_temperature;BME280_humidity;BME280_pressure;Samples;Min_cycle;Max_cycle;Signal;HPM_P1;HPM_P2
2023/11/23 00:00:36;;;;;;;15.07;13.35;;;;;;;2.26;72.47;99281.91;4981818;28;20106;-70
2023/11/23 00:03:01;;;;;;;15.95;14.35;;;;;;;2.25;73.17;99291.69;4967794;28;20051;-70
2023/11/23 00:05:28;;;;;;;16.15;14.40;;;;;;;2.32;73.08;99281.22;4966071;28;20538;-71
2023/11/23 00:07:55;;;;;;;16.67;15.05;;;;;;;2.32;72.74;99258.16;4977138;28;20031;-70
2023/11/23 00:10:20;;;;;;;16.08;14.25;;;;;;;2.15;72.43;99227.25;4967582;28;20026;-71
2023/11/23 00:12:45;;;;;;;15.95;14.25;;;;;;;2.38;72.90;99259.31;4962542;28;20039;-71
2023/11/23 00:15:11;;;;;;;16.88;15.07;;;;;;;2.34;73.42;99253.50;4961416;28;20031;-70
2023/11/23 00:17:38;;;;;;;16.35;14.70;;;;;;;2.34;73.37;99264.13;4963118;28;20038;-71
2023/11/23 00:20:06;;;;;;;16.13;14.52;;;;;;;2.16;73.34;99231.56;4963804;28;20402;-71
2023/11/23 00:22:32;;;;;;;17.08;15.18;;;;;;;2.25;72.70;99249.19;4981845;28;20096;-71
2023/11/23 00:24:58;;;;;;;15.77;14.15;;;;;;;1.97;73.44;99210.63;4964863;28;20049;-71
2023/11/23 00:27:23;;;;;;;15.75;14.05;;;;;;;2.09;72.86;99238.53;4964880;28;20034;-72
2023/11/23 00:29:49;;;;;;;16.92;14.35;;;;;;;2.19;73.51;99255.16;4984393;28;20072;-71
2023/11/23 00:32:14;;;;;;;16.05;14.43;;;;;;;2.19;73.19;99244.53;4983239;28;20491;-71
2023/11/23 00:34:40;;;;;;;18.20;15.30;;;;;;;2.28;72.94;99240.88;4978284;28;20031;-71
2023/11/23 00:37:08;;;;;;;17.27;15.48;;;;;;;2.17;73.13;99225.25;4966881;28;20415;-70
2023/11/23 00:39:34;;;;;;;18.10;14.73;;;;;;;2.27;72.83;99241.88;4955349;28;20050;-70
2023/11/23 00:41:59;;;;;;;16.65;14.45;;;;;;;2.23;72.86;99235.22;4951674;28;20058;-70
2023/11/23 00:44:25;;;;;;;15.68;14.07;;;;;;;2.24;73.55;99226.25;4932617;28;20481;-70
2023/11/23 00:46:51;;;;;;;16.45;14.55;;;;;;;2.24;73.10;99220.94;4977475;28;20031;-70
2023/11/23 00:49:16;;;;;;;16.58;14.88;;;;;;;2.26;72.87;99208.34;4952354;28;20113;-70
2023/11/23 00:51:42;;;;;;;15.88;14.27;;;;;;;2.22;73.02;99200.88;4961902;28;20046;-70
2023/11/23 00:54:07;;;;;;;16.23;14.52;;;;;;;2.19;72.85;99217.13;4928852;28;20057;-72
2023/11/23 00:56:33;;;;;;;17.90;15.88;;;;;;;2.18;73.46;99232.22;4976418;28;20089;-70
2023/11/23 00:58:58;;;;;;;16.58;14.82;;;;;;;2.18;73.07;99221.59;4973882;28;20106;-71
2023/11/23 01:01:23;;;;;;;18.40;15.32;;;;;;;2.16;73.58;99223.59;4958918;28;20030;-70
2023/11/23 01:03:49;;;;;;;15.70;14.07;;;;;;;2.24;73.66;99220.94;4979290;28;20096;-71
2023/11/23 01:06:14;;;;;;;15.77;14.07;;;;;;;2.22;72.62;99212.31;4982411;28;20050;-70
2023/11/23 01:08:40;;;;;;;16.05;14.10;;;;;;;2.18;73.30;99224.25;4945706;28;20479;-70
2023/11/23 01:11:05;;;;;;;15.75;14.00;;;;;;;2.14;72.97;99220.28;4939148;28;20030;-71
2023/11/23 01:13:31;;;;;;;17.40;15.60;;;;;;;2.15;72.96;99227.25;4962846;28;20058;-69
2023/11/23 01:15:56;;;;;;;16.98;14.52;;;;;;;2.18;73.02;99236.72;4983706;28;20027;-70
2023/11/23 01:18:22;;;;;;;17.75;15.02;;;;;;;2.10;72.91;99218.97;4943973;28;20062;-70
2023/11/23 01:20:48;;;;;;;16.35;14.70;;;;;;;2.21;73.32;99237.22;4944592;28;20162;-70
2023/11/23 01:23:13;;;;;;;17.45;15.45;;;;;;;2.23;72.86;99256.50;4975109;28;20438;-71
2023/11/23 01:25:39;;;;;;;17.27;15.48;;;;;;;2.25;73.24;99259.81;4960299;28;20270;-71
2023/11/23 01:28:04;;;;;;;18.55;15.63;;;;;;;2.27;73.58;99260.47;4957510;28;20119;-71
2023/11/23 01:30:30;;;;;;;17.70;14.82;;;;;;;2.30;72.96;99246.03;4966367;28;20034;-70
2023/11/23 01:32:56;;;;;;;16.90;15.10;;;;;;;2.37;72.92;99242.53;4980487;28;20027;-70
2023/11/23 01:35:21;;;;;;;17.33;15.13;;;;;;;2.26;72.78;99216.31;4973923;28;20247;-70
2023/11/23 01:37:48;;;;;;;17.50;15.55;;;;;;;2.36;72.77;99230.22;4976426;28;20029;-72
2023/11/23 01:40:13;;;;;;;18.05;15.80;;;;;;;2.28;72.78;99211.66;4946812;28;20038;-73
2023/11/23 01:42:38;;;;;;;18.02;16.13;;;;;;;2.27;72.34;99201.16;4960112;28;20031;-72
2023/11/23 01:45:04;;;;;;;19.80;16.30;;;;;;;2.28;72.69;99201.03;4981190;28;20050;-73
2023/11/23 01:47:30;;;;;;;18.48;16.13;;;;;;;2.30;72.17;99214.97;4961304;28;20030;-69
2023/11/23 01:49:57;;;;;;;18.15;15.73;;;;;;;2.17;72.36;99189.91;4948580;28;20045;-69
2023/11/23 01:52:23;;;;;;;18.27;16.00;;;;;;;2.18;72.86;99203.00;4963003;28;20112;-70
2023/11/23 01:54:50;;;;;;;18.95;15.85;;;;;;;2.10;73.06;99193.22;4942312;28;20071;-70
2023/11/23 01:57:16;;;;;;;20.02;16.92;;;;;;;2.11;72.94;99199.34;4964870;28;20022;-70
2023/11/23 01:59:41;;;;;;;20.13;16.80;;;;;;;2.05;73.99;99206.16;4958542;28;20041;-70
2023/11/23 02:02:07;;;;;;;18.70;16.70;;;;;;;1.88;73.95;99211.63;4959073;28;20034;-70
2023/11/23 02:04:32;;;;;;;18.98;16.73;;;;;;;1.85;74.33;99236.69;4954297;28;20041;-69
2023/11/23 02:06:58;;;;;;;19.67;17.15;;;;;;;1.84;73.94;99207.66;4952672;28;21585;-70
2023/11/23 02:09:24;;;;;;;18.80;16.52;;;;;;;1.86;73.41;99195.88;4978727;28;20271;-70
2023/11/23 02:11:49;;;;;;;19.85;16.52;;;;;;;1.87;74.07;99196.69;4980195;28;20092;-71
2023/11/23 02:14:15;;;;;;;19.25;16.45;;;;;;;1.74;74.51;99186.56;4978633;28;20046;-71
2023/11/23 02:16:40;;;;;;;20.50;17.40;;;;;;;1.79;74.83;99199.34;4959257;28;20029;-70
2023/11/23 02:19:06;;;;;;;19.83;17.73;;;;;;;1.77;74.93;99196.88;4963721;28;20414;-69
2023/11/23 02:21:31;;;;;;;22.85;18.60;;;;;;;1.69;74.24;99193.34;4944749;28;20113;-70
2023/11/23 02:23:57;;;;;;;20.20;18.05;;;;;;;1.65;74.77;99192.03;4981640;28;20110;-71
2023/11/23 02:26:22;;;;;;;21.40;18.40;;;;;;;1.64;74.69;99200.97;4946799;28;20070;-70
2023/11/23 02:28:47;;;;;;;22.60;19.38;;;;;;;1.68;74.56;99197.00;4973306;28;20081;-69
2023/11/23 02:31:13;;;;;;;23.55;19.00;;;;;;;1.63;74.97;99192.19;4956963;28;20109;-71
2023/11/23 02:33:38;;;;;;;24.58;19.65;;;;;;;1.62;75.41;99177.25;4975301;28;20058;-69
2023/11/23 02:36:04;;;;;;;24.17;20.25;;;;;;;1.63;74.97;99201.97;4950867;28;20022;-69
2023/11/23 02:38:30;;;;;;;22.42;19.88;;;;;;;1.59;75.51;99187.38;4959699;28;20061;-68
2023/11/23 02:40:57;;;;;;;22.67;20.00;;;;;;;1.46;75.95;99171.06;4977424;28;20030;-69
2023/11/23 02:43:25;;;;;;;24.13;20.55;;;;;;;1.40;76.15;99172.56;4975292;28;20035;-70
2023/11/23 02:45:52;;;;;;;24.25;21.02;;;;;;;1.44;76.97;99178.38;4957815;28;20023;-69
2023/11/23 02:48:17;;;;;;;25.88;20.30;;;;;;;1.34;76.29;99174.03;4980671;28;20033;-70
2023/11/23 02:50:43;;;;;;;27.00;22.25;;;;;;;1.38;76.69;99180.69;4950649;28;20113;-70
2023/11/23 02:53:26;;;;;;;24.50;21.55;;;;;;;1.33;76.84;99184.81;4962466;28;20194;-71
2023/11/23 02:55:52;;;;;;;25.98;22.15;;;;;;;1.20;77.28;99169.34;4972981;28;20039;-71
2023/11/23 02:58:17;;;;;;;25.33;20.40;;;;;;;1.22;76.55;99171.84;4948316;28;20109;-71
2023/11/23 03:00:43;;;;;;;25.85;21.95;;;;;;;1.31;77.31;99177.00;4976611;28;20062;-69
2023/11/23 03:03:08;;;;;;;25.42;22.15;;;;;;;1.27;77.30;99174.84;4981061;28;20027;-69
2023/11/23 03:05:33;;;;;;;23.45;20.75;;;;;;;1.28;77.49;99189.78;4982504;28;20410;-69
2023/11/23 03:07:59;;;;;;;26.70;21.90;;;;;;;1.30;77.67;99193.94;4962566;28;20104;-69
2023/11/23 03:10:24;;;;;;;24.65;21.23;;;;;;;1.30;76.44;99183.31;4951450;28;20042;-70
2023/11/23 03:12:50;;;;;;;24.98;21.98;;;;;;;1.29;77.83;99189.59;4963832;28;20037;-70
2023/11/23 03:15:15;;;;;;;27.52;22.15;;;;;;;1.33;77.66;99177.66;4985488;28;20042;-69
2023/11/23 03:17:41;;;;;;;26.05;22.40;;;;;;;1.25;76.90;99175.00;4948708;28;20034;-69
2023/11/23 03:20:06;;;;;;;27.25;22.90;;;;;;;1.04;76.61;99145.44;4935218;28;20125;-70
2023/11/23 03:22:32;;;;;;;26.92;22.33;;;;;;;1.23;76.67;99171.69;4945688;28;20126;-69
2023/11/23 03:24:57;;;;;;;27.48;22.70;;;;;;;1.22;76.85;99170.03;4975930;28;20026;-69
2023/11/23 03:27:23;;;;;;;26.27;22.08;;;;;;;1.19;76.81;99153.63;4978902;28;20034;-69
2023/11/23 03:29:48;;;;;;;27.75;23.67;;;;;;;1.20;77.05;99161.41;4977142;28;20043;-70
2023/11/23 03:32:14;;;;;;;28.02;23.02;;;;;;;1.06;77.49;99137.31;4981369;28;20077;-71
2023/11/23 03:34:40;;;;;;;27.38;22.27;;;;;;;1.13;77.75;99141.81;4961959;28;20488;-71
2023/11/23 03:37:05;;;;;;;26.35;22.45;;;;;;;1.06;77.67;99127.53;4950667;28;20117;-71
2023/11/23 03:39:30;;;;;;;25.88;22.38;;;;;;;1.09;78.18;99132.53;4971420;28;20394;-71
2023/11/23 03:41:56;;;;;;;28.20;22.85;;;;;;;1.05;77.91;99123.22;4977155;28;20034;-71
2023/11/23 03:44:21;;;;;;;26.60;23.17;;;;;;;1.08;78.27;99125.56;4965429;28;20038;-70
2023/11/23 03:46:46;;;;;;;26.92;22.42;;;;;;;1.09;78.69;99131.69;4978401;28;20023;-71
2023/11/23 03:49:12;;;;;;;29.33;23.73;;;;;;;0.99;78.74;99121.22;4976458;28;20380;-69
2023/11/23 03:51:37;;;;;;;30.92;24.38;;;;;;;1.09;77.87;99137.84;4962277;28;20034;-68
2023/11/23 03:54:03;;;;;;;29.60;24.00;;;;;;;1.04;78.27;99134.00;4979332;28;20050;-70
2023/11/23 03:56:28;;;;;;;27.23;24.13;;;;;;;1.05;78.13;99119.75;4980568;28;20038;-70
2023/11/23 03:58:53;;;;;;;30.50;24.38;;;;;;;0.97;78.61;99117.06;4964601;28;20042;-69
2023/11/23 04:01:21;;;;;;;28.13;23.48;;;;;;;0.93;78.96;99110.44;4962377;28;20490;-69
2023/11/23 04:03:47;;;;;;;30.90;24.20;;;;;;;0.91;79.69;99115.06;4973272;28;20058;-71
2023/11/23 04:06:12;;;;;;;28.58;24.58;;;;;;;0.99;78.96;99115.91;4981157;28;20039;-71
2023/11/23 04:08:41;;;;;;;28.45;24.48;;;;;;;0.99;79.41;99113.25;4961071;28;20035;-70
2023/11/23 04:11:07;;;;;;;31.33;25.83;;;;;;;0.89;79.89;99107.25;4983295;28;20023;-70
2023/11/23 04:13:32;;;;;;;27.85;24.05;;;;;;;1.01;80.28;99135.16;4979027;28;20050;-70
2023/11/23 04:15:57;;;;;;;28.35;24.50;;;;;;;0.98;79.51;99138.09;4975664;28;20065;-70
2023/11/23 04:18:23;;;;;;;29.88;24.92;;;;;;;0.92;79.97;99125.50;4929404;28;1041683;-70
2023/11/23 04:20:48;;;;;;;28.40;24.67;;;;;;;0.99;79.56;99147.75;4977610;28;20134;-70
2023/11/23 04:23:14;;;;;;;31.17;25.33;;;;;;;0.84;79.39;99111.41;4984724;28;20498;-69
2023/11/23 04:25:39;;;;;;;30.30;24.38;;;;;;;0.93;78.96;99127.19;4961830;28;20110;-69
2023/11/23 04:28:05;;;;;;;29.00;25.42;;;;;;;1.00;79.63;99138.81;4979447;28;20034;-69
2023/11/23 04:30:30;;;;;;;31.77;25.10;;;;;;;1.03;78.91;99141.13;4977414;28;20414;-70
2023/11/23 04:32:56;;;;;;;29.02;24.33;;;;;;;1.04;79.16;99134.00;4982036;28;20043;-70
2023/11/23 04:35:21;;;;;;;32.45;26.63;;;;;;;0.92;79.13;99136.09;4962976;28;20035;-70
2023/11/23 04:37:47;;;;;;;30.83;25.77;;;;;;;0.95;79.88;99132.31;4966360;28;20026;-69
2023/11/23 04:40:12;;;;;;;29.73;24.85;;;;;;;0.91;79.81;99130.97;4947623;28;20548;-71
2023/11/23 04:42:38;;;;;;;31.33;26.27;;;;;;;0.93;80.29;99132.47;4977719;28;20039;-71
2023/11/23 04:45:04;;;;;;;31.05;25.55;;;;;;;0.90;79.87;99138.09;4965667;28;20475;-71
2023/11/23 04:47:29;;;;;;;29.52;26.30;;;;;;;0.71;79.72;99090.63;4980166;28;20039;-72
2023/11/23 04:49:55;;;;;;;30.05;25.48;;;;;;;0.88;80.13;99113.56;4966530;28;20479;-73
2023/11/23 04:52:20;;;;;;;32.00;25.35;;;;;;;0.97;79.10;99138.28;4965293;28;20395;-72
2023/11/23 04:54:46;;;;;;;31.38;26.15;;;;;;;0.94;79.60;99122.69;4959712;28;20023;-72
2023/11/23 04:57:12;;;;;;;29.73;25.33;;;;;;;0.98;79.47;99124.84;4983915;28;20103;-72
2023/11/23 04:59:37;;;;;;;32.38;26.15;;;;;;;0.97;79.86;99123.22;4960776;28;20431;-72
2023/11/23 05:02:03;;;;;;;32.28;26.15;;;;;;;0.95;79.69;99125.19;4985386;28;20041;-72
2023/11/23 05:04:28;;;;;;;32.45;26.08;;;;;;;0.94;80.52;99128.81;4972233;28;20439;-71
2023/11/23 05:06:55;;;;;;;30.73;25.60;;;;;;;0.86;80.20;99120.84;4980134;28;20039;-73
2023/11/23 05:09:22;;;;;;;31.73;26.23;;;;;;;0.88;80.24;99124.16;4963172;28;20038;-73
2023/11/23 05:11:47;;;;;;;31.98;25.42;;;;;;;0.89;79.89;99125.81;4966290;28;20376;-73
2023/11/23 05:14:12;;;;;;;30.25;25.40;;;;;;;0.92;80.39;99141.41;4962634;28;20446;-72
2023/11/23 05:16:38;;;;;;;30.27;25.58;;;;;;;0.92;80.39;99141.41;4960868;28;20031;-70
2023/11/23 05:19:06;;;;;;;30.25;25.55;;;;;;;0.88;80.71;99129.47;4949086;28;20037;-70
2023/11/23 05:21:32;;;;;;;30.98;25.20;;;;;;;0.96;80.49;99124.19;4977419;28;20138;-69
2023/11/23 05:23:58;;;;;;;30.98;26.50;;;;;;;1.06;79.85;99143.44;4953166;28;20023;-73
2023/11/23 05:26:23;;;;;;;32.50;27.15;;;;;;;1.05;80.07;99141.78;4946415;28;20034;-71
2023/11/23 05:28:49;;;;;;;32.20;26.60;;;;;;;0.93;80.22;99126.34;4958244;28;20026;-71
2023/11/23 05:31:14;;;;;;;33.58;26.25;;;;;;;1.01;79.99;99132.50;4951496;28;20411;-71
2023/11/23 05:33:39;;;;;;;57.17;48.83;;;;;;;0.94;81.25;99118.22;4959050;28;20030;-72
2023/11/23 05:36:08;;;;;;;35.25;30.42;;;;;;;1.03;79.73;99133.16;4968038;28;20038;-71
2023/11/23 05:38:34;;;;;;;54.58;40.63;;;;;;;0.92;80.00;99125.50;4955513;28;20078;-71
2023/11/23 05:41:00;;;;;;;60.78;49.13;;;;;;;0.92;80.50;99130.81;4961872;28;20054;-72
2023/11/23 05:43:25;;;;;;;35.28;30.48;;;;;;;0.78;81.29;99098.75;4960580;28;20030;-72
2023/11/23 05:45:50;;;;;;;29.35;26.15;;;;;;;0.98;81.20;99106.28;4985024;28;20414;-72
2023/11/23 05:48:16;;;;;;;32.72;25.10;;;;;;;1.05;80.51;99102.00;4961671;28;20035;-71
2023/11/23 05:50:42;;;;;;;29.45;25.48;;;;;;;1.08;80.75;99104.34;4977501;28;20043;-71
2023/11/23 05:53:07;;;;;;;28.73;24.98;;;;;;;1.12;80.70;99089.75;4980842;28;20037;-71
2023/11/23 05:55:32;;;;;;;30.33;25.67;;;;;;;1.18;81.38;99099.72;4960681;28;20046;-72
2023/11/23 05:57:58;;;;;;;27.88;24.92;;;;;;;1.20;80.86;99091.59;4963752;28;20399;-73
2023/11/23 06:00:24;;;;;;;29.30;25.48;;;;;;;1.20;80.90;99092.44;4946527;28;20030;-72
2023/11/23 06:02:50;;;;;;;30.08;24.25;;;;;;;1.27;80.70;99077.53;4972720;28;20135;-72
2023/11/23 06:05:15;;;;;;;28.60;24.33;;;;;;;1.27;81.01;99066.91;4961558;28;20197;-71
2023/11/23 06:07:41;;;;;;;29.92;24.88;;;;;;;1.37;80.89;99064.09;4957942;28;20023;-72
2023/11/23 06:10:07;;;;;;;28.08;24.20;;;;;;;1.37;81.00;99054.31;4965801;28;20050;-72
2023/11/23 06:12:34;;;;;;;26.65;23.77;;;;;;;1.42;80.78;99033.41;4960867;28;20158;-72
2023/11/23 06:15:02;;;;;;;27.67;23.23;;;;;;;1.39;80.78;99033.75;4963220;28;20517;-72
2023/11/23 06:17:29;;;;;;;27.77;24.63;;;;;;;1.42;79.86;99044.00;4978263;28;20065;-72
2023/11/23 06:19:54;;;;;;;27.25;23.15;;;;;;;1.43;80.79;99044.84;4949220;28;20039;-72
2023/11/23 06:22:20;;;;;;;26.00;23.35;;;;;;;1.40;80.49;99040.69;4945924;28;20050;-72
2023/11/23 06:24:45;;;;;;;26.05;23.17;;;;;;;1.36;81.18;99033.25;4966081;28;20446;-73
2023/11/23 06:27:10;;;;;;;26.98;23.50;;;;;;;1.50;80.04;99045.00;4963345;28;20026;-72
2023/11/23 06:29:36;;;;;;;26.05;23.38;;;;;;;1.59;80.64;99049.34;4953453;28;20046;-72
2023/11/23 06:32:01;;;;;;;26.58;22.88;;;;;;;1.70;80.32;99057.81;4965219;28;20030;-72
2023/11/23 06:34:27;;;;;;;27.70;22.70;;;;;;;1.70;80.23;99064.94;4976523;28;20064;-72
2023/11/23 06:36:52;;;;;;;26.58;22.27;;;;;;;1.65;80.24;99046.00;4980014;28;20023;-72
2023/11/23 06:39:23;;;;;;;29.95;25.05;;;;;;;1.79;80.08;99056.78;4946887;28;20038;-73
2023/11/23 06:41:52;;;;;;;30.13;26.55;;;;;;;1.84;79.52;99058.94;4953454;28;20126;-72
2023/11/23 06:44:22;;;;;;;29.67;25.90;;;;;;;1.70;80.23;99041.88;4963007;28;20129;-72
2023/11/23 06:46:48;;;;;;;24.58;21.85;;;;;;;1.75;80.16;99038.72;4957326;28;20039;-71
2023/11/23 06:49:13;;;;;;;23.75;21.25;;;;;;;1.69;79.61;99034.91;4963621;28;20148;-71
2023/11/23 06:51:39;;;;;;;25.85;20.88;;;;;;;1.74;79.22;99032.56;4974653;28;20034;-72
2023/11/23 06:54:05;;;;;;;24.15;21.55;;;;;;;1.86;80.10;99046.31;4935751;29;20391;-71
2023/11/23 06:56:31;;;;;;;25.20;20.20;;;;;;;1.81;79.15;99038.88;4974299;28;20035;-70
2023/11/23 06:58:58;;;;;;;23.50;19.77;;;;;;;1.84;79.37;99049.16;4935495;28;20125;-72
2023/11/23 07:01:23;;;;;;;25.45;20.90;;;;;;;1.83;78.96;99034.22;4975857;28;20055;-69
2023/11/23 07:03:49;;;;;;;23.63;18.98;;;;;;;1.78;78.80;99033.03;4960987;28;20102;-71
2023/11/23 07:06:16;;;;;;;23.73;21.05;;;;;;;1.84;79.30;99054.47;4973426;28;20034;-71
2023/11/23 07:08:41;;;;;;;21.90;18.92;;;;;;;1.90;78.62;99048.47;4959144;28;20487;-69
2023/11/23 07:11:07;;;;;;;20.42;18.23;;;;;;;1.93;79.61;99057.94;4964044;28;20045;-71
2023/11/23 07:13:33;;;;;;;22.40;19.42;;;;;;;1.96;78.64;99052.28;4959943;28;20038;-70
2023/11/23 07:16:02;;;;;;;28.08;21.27;;;;;;;2.00;78.91;99054.44;4955362;28;20031;-72
2023/11/23 07:18:28;;;;;;;67.10;46.13;;;;;;;1.98;79.48;99050.28;4979302;28;20110;-71
2023/11/23 07:20:55;;;;;;;111.35;71.38;;;;;;;1.92;78.66;99050.94;4959073;28;20117;-72
2023/11/23 07:23:20;;;;;;;117.22;76.60;;;;;;;1.97;79.32;99059.25;4981501;28;20459;-71
2023/11/23 07:25:46;;;;;;;75.88;50.58;;;;;;;1.99;78.99;99051.94;4964338;28;20074;-72
2023/11/23 07:28:11;;;;;;;35.30;25.92;;;;;;;2.06;78.33;99051.09;4963078;28;20030;-72
2023/11/23 07:30:43;;;;;;;29.02;24.98;;;;;;;2.19;78.51;99057.72;4965094;28;20041;-73
2023/11/23 07:33:09;;;;;;;41.97;31.73;;;;;;;2.18;78.02;99067.50;4963079;28;20529;-70
2023/11/23 07:35:35;;;;;;;29.80;25.15;;;;;;;2.17;78.33;99073.81;4959786;28;20065;-71
2023/11/23 07:38:03;;;;;;;26.73;23.05;;;;;;;2.15;78.70;99061.72;4948207;28;20082;-73
2023/11/23 07:40:28;;;;;;;25.88;22.92;;;;;;;2.21;78.38;99061.88;4978387;28;20022;-71
2023/11/23 07:42:54;;;;;;;24.80;22.17;;;;;;;2.22;78.23;99068.81;4958208;28;20039;-75
2023/11/23 07:45:19;;;;;;;24.95;20.90;;;;;;;2.14;77.87;99063.53;4940685;28;20022;-75
2023/11/23 07:47:45;;;;;;;23.23;20.60;;;;;;;2.25;78.07;99071.13;4959232;28;20042;-71
2023/11/23 07:50:11;;;;;;;24.25;20.42;;;;;;;2.31;78.54;99078.41;4982297;28;20022;-72
2023/11/23 07:52:37;;;;;;;23.65;21.25;;;;;;;2.20;78.20;99054.03;4947439;28;20042;-72
2023/11/23 07:55:04;;;;;;;23.52;20.95;;;;;;;2.18;78.79;99059.53;4960689;28;20382;-71
2023/11/23 07:57:30;;;;;;;22.67;20.00;;;;;;;2.23;78.08;99057.19;4963474;28;20089;-72
2023/11/23 07:59:56;;;;;;;22.73;19.63;;;;;;;2.23;78.75;99046.56;4962047;28;20475;-71
2023/11/23 08:02:25;;;;;;;23.25;19.95;;;;;;;2.37;77.93;99067.13;4966800;28;20045;-72
2023/11/23 08:04:51;;;;;;;20.58;18.38;;;;;;;2.30;78.06;99055.53;4961570;28;20368;-72
2023/11/23 08:07:16;;;;;;;20.35;17.77;;;;;;;2.40;78.11;99045.53;4961478;28;20173;-72
2023/11/23 08:09:42;;;;;;;23.10;18.95;;;;;;;2.38;78.61;99034.22;4965055;28;20054;-72
2023/11/23 08:12:09;;;;;;;20.67;17.95;;;;;;;2.37;77.89;99035.22;4963586;28;20027;-71
2023/11/23 08:14:37;;;;;;;20.65;17.67;;;;;;;2.38;78.22;99052.81;4967522;28;20483;-71
2023/11/23 08:17:03;;;;;;;20.70;18.00;;;;;;;2.31;78.21;99027.94;4958213;28;20380;-72
2023/11/23 08:19:30;;;;;;;22.15;18.98;;;;;;;2.43;78.24;99034.53;4964425;28;20029;-73
2023/11/23 08:21:56;;;;;;;20.52;17.70;;;;;;;2.52;78.59;99033.50;4962052;28;20093;-72
2023/11/23 08:24:21;;;;;;;23.88;19.73;;;;;;;2.47;78.84;99027.88;4966385;28;20084;-71
2023/11/23 08:26:46;;;;;;;23.02;19.35;;;;;;;2.51;78.34;99015.91;4962646;28;20043;-75
2023/11/23 08:29:12;;;;;;;21.00;18.80;;;;;;;2.47;78.09;98998.66;4968666;28;20037;-73
2023/11/23 08:31:37;;;;;;;20.48;18.02;;;;;;;2.48;78.00;98981.69;4981032;28;20096;-75
2023/11/23 08:34:03;;;;;;;20.20;17.55;;;;;;;2.46;78.26;98978.38;4961621;28;20037;-74
2023/11/23 08:36:29;;;;;;;20.52;18.33;;;;;;;2.60;77.42;98982.97;4949534;28;20519;-74
2023/11/23 08:38:54;;;;;;;20.48;17.60;;;;;;;2.71;78.31;98995.84;4962821;28;20033;-73
2023/11/23 08:41:24;;;;;;;22.38;18.92;;;;;;;2.71;77.97;99000.34;4926438;28;20031;-74
2023/11/23 08:43:49;;;;;;;19.95;17.85;;;;;;;2.76;78.43;98990.84;4961755;28;20046;-75
2023/11/23 08:46:15;;;;;;;21.33;19.13;;;;;;;2.85;77.86;98991.59;4958955;28;20050;-75
2023/11/23 08:48:41;;;;;;;24.52;20.25;;;;;;;2.68;77.88;98968.78;4965744;28;20506;-72
2023/11/23 08:51:06;;;;;;;25.10;19.67;;;;;;;2.80;78.01;98978.84;4963704;28;20390;-73
2023/11/23 08:53:32;;;;;;;19.60;17.42;;;;;;;2.75;77.84;98964.44;4963030;28;20046;-74
2023/11/23 08:55:57;;;;;;;20.23;17.08;;;;;;;3.00;77.58;98989.03;4960894;28;20039;-74
2023/11/23 08:58:22;;;;;;;17.88;15.85;;;;;;;2.86;77.95;98976.47;4982921;28;20046;-73
2023/11/23 09:00:48;;;;;;;18.77;16.33;;;;;;;3.00;77.95;98989.84;4977884;28;20046;-71
2023/11/23 09:03:13;;;;;;;17.40;15.52;;;;;;;2.99;77.89;98984.72;4971053;28;20042;-72
2023/11/23 09:05:39;;;;;;;19.15;15.27;;;;;;;2.99;77.55;98998.03;4958102;28;20432;-72
2023/11/23 09:08:06;;;;;;;17.63;15.73;;;;;;;2.95;77.83;98976.25;4945181;28;20105;-74
2023/11/23 09:10:35;;;;;;;16.85;14.95;;;;;;;3.09;77.59;98998.59;4954098;28;20027;-73
2023/11/23 09:13:02;;;;;;;18.10;15.32;;;;;;;2.98;78.10;98983.88;4956607;28;20105;-74
2023/11/23 09:15:31;;;;;;;16.02;13.73;;;;;;;2.99;78.00;98977.53;4964032;28;20019;-73
2023/11/23 09:17:56;;;;;;;16.65;14.90;;;;;;;3.09;78.07;98977.31;4960661;28;20049;-74
2023/11/23 09:20:22;;;;;;;16.92;15.13;;;;;;;3.19;77.57;98993.88;4956007;28;20033;-74
2023/11/23 09:22:49;;;;;;;16.05;14.35;;;;;;;3.10;77.86;98985.13;4962337;28;20065;-75
2023/11/23 09:25:14;;;;;;;17.10;15.25;;;;;;;3.20;78.19;98992.84;4955414;28;20048;-74
2023/11/23 09:27:39;;;;;;;20.05;15.57;;;;;;;3.22;77.84;98972.25;4959482;28;20518;-74
2023/11/23 09:30:06;;;;;;;16.13;14.48;;;;;;;3.12;77.61;98951.19;4942941;28;20395;-74
2023/11/23 09:32:33;;;;;;;18.17;14.38;;;;;;;3.28;77.74;98960.88;4958973;28;20043;-73
2023/11/23 09:34:59;;;;;;;16.60;14.80;;;;;;;3.24;77.80;98960.41;4960235;28;20023;-73
2023/11/23 09:37:26;;;;;;;18.67;15.68;;;;;;;3.29;77.94;98951.88;4961362;28;20034;-74
2023/11/23 09:39:52;;;;;;;17.38;14.52;;;;;;;3.31;77.83;98952.53;4957159;28;20062;-74
2023/11/23 09:42:18;;;;;;;17.02;14.13;;;;;;;3.40;78.02;98964.75;4974897;28;20125;-74
2023/11/23 09:44:45;;;;;;;22.13;15.23;;;;;;;3.32;78.59;98940.84;4950555;28;20125;-73
2023/11/23 09:47:12;;;;;;;17.38;14.25;;;;;;;3.37;77.76;98933.16;4968588;28;20506;-72
2023/11/23 09:49:37;;;;;;;15.05;13.57;;;;;;;3.42;77.87;98941.44;4985426;28;20046;-71
2023/11/23 09:52:04;;;;;;;16.52;13.73;;;;;;;3.58;77.92;98951.09;4972765;28;20038;-70
2023/11/23 09:54:31;;;;;;;17.38;14.43;;;;;;;3.58;77.89;98941.28;4958350;28;20036;-72
2023/11/23 09:56:57;;;;;;;16.02;14.32;;;;;;;3.48;77.65;98919.41;4963459;28;20035;-71
2023/11/23 09:59:23;;;;;;;19.90;16.63;;;;;;;3.51;78.08;98908.41;4968459;28;20102;-72
2023/11/23 10:01:52;;;;;;;17.55;15.60;;;;;;;3.49;77.86;98902.44;4968587;28;20042;-72
2023/11/23 10:04:18;;;;;;;18.92;15.80;;;;;;;3.65;78.01;98915.56;4949555;28;20022;-73
2023/11/23 10:06:43;;;;;;;28.92;22.48;;;;;;;3.68;78.05;98909.91;4961763;28;20039;-72
2023/11/23 10:09:14;;;;;;;27.65;20.45;;;;;;;3.72;77.89;98916.50;4969798;28;20030;-73
2023/11/23 10:11:39;;;;;;;37.60;28.25;;;;;;;3.67;78.34;98894.91;4977184;28;20495;-71
2023/11/23 10:14:05;;;;;;;24.55;21.95;;;;;;;3.64;78.46;98881.94;4938935;28;20029;-72
2023/11/23 10:16:31;;;;;;;21.08;18.30;;;;;;;3.83;78.07;98872.56;4960136;28;20084;-72
2023/11/23 10:18:57;;;;;;;20.35;16.42;;;;;;;3.94;77.78;98888.13;4982630;28;20030;-73
2023/11/23 10:21:23;;;;;;;33.22;29.23;;;;;;;3.86;77.67;98886.38;4959551;28;20049;-72
2023/11/23 10:23:49;;;;;;;28.75;25.75;;;;;;;4.02;77.76;98880.84;4961290;28;20033;-72
2023/11/23 10:26:14;;;;;;;20.45;17.05;;;;;;;3.94;78.00;98867.63;4961643;28;20034;-73
2023/11/23 10:28:41;;;;;;;20.70;18.50;;;;;;;3.85;78.90;98874.03;4954631;28;20077;-73
2023/11/23 10:31:07;;;;;;;37.03;33.15;;;;;;;3.85;78.62;98874.03;4965044;28;20046;-74
2023/11/23 10:33:36;;;;;;;33.08;29.63;;;;;;;3.78;78.62;98867.81;4940566;28;20023;-73
2023/11/23 10:36:04;;;;;;;17.92;16.13;;;;;;;3.83;78.98;98878.75;4962191;28;20429;-73
2023/11/23 10:38:41;;;;;;;18.00;14.80;;;;;;;3.71;79.31;98861.56;4958602;28;20039;-72
2023/11/23 10:41:07;;;;;;;17.75;15.05;;;;;;;3.87;79.04;98864.06;4959860;28;20085;-73
2023/11/23 10:43:36;;;;;;;16.88;14.23;;;;;;;3.90;78.89;98854.84;4960010;28;20030;-73
2023/11/23 10:46:04;;;;;;;17.60;14.60;;;;;;;3.93;78.87;98852.66;4961517;28;20042;-74
2023/11/23 10:48:31;;;;;;;17.20;14.25;;;;;;;3.96;78.77;98844.28;4961925;28;20054;-71
2023/11/23 10:50:57;;;;;;;15.38;13.02;;;;;;;3.94;79.16;98843.66;4958750;28;20461;-71
2023/11/23 10:53:23;;;;;;;15.27;12.15;;;;;;;3.96;78.98;98836.28;4961886;28;20031;-71
2023/11/23 10:55:49;;;;;;;14.68;11.90;;;;;;;3.92;79.34;98819.00;4959726;28;20042;-72
2023/11/23 10:58:16;;;;;;;13.95;12.55;;;;;;;3.99;79.09;98833.22;4981246;28;20030;-71
2023/11/23 11:00:42;;;;;;;14.80;11.98;;;;;;;3.96;79.14;98833.63;4960624;28;20063;-70
2023/11/23 11:03:08;;;;;;;13.25;11.05;;;;;;;4.01;79.09;98828.53;4980170;28;20069;-70
2023/11/23 11:05:45;;;;;;;13.80;10.73;;;;;;;4.09;78.89;98823.13;4960743;28;20085;-70
2023/11/23 11:08:10;;;;;;;13.60;10.50;;;;;;;4.05;79.76;98824.50;4960971;28;20037;-70
2023/11/23 11:10:41;;;;;;;13.50;10.70;;;;;;;4.13;79.12;98832.38;4946111;28;20455;-71
2023/11/23 11:13:08;;;;;;;13.68;11.23;;;;;;;4.16;78.53;98829.34;4978632;28;20070;-70
2023/11/23 11:15:33;;;;;;;14.48;10.50;;;;;;;4.25;78.93;98823.91;4958308;28;20027;-71
2023/11/23 11:18:06;;;;;;;12.40;10.18;;;;;;;4.26;78.83;98817.53;4980078;28;20037;-71